Time;durP1;ratioP1;P1;durP2;ratioP2;P2;SDS_P1;SDS_P2;PMS_P1;PMS_P2;Temp;Humidity;BMP_temperature;BMP_pressure;BME280_temperature;BME280_humidity;BME280_pressure;Samples;Min_cycle;Max_cycle;Signal;HPM_P1;HPM_P2
2023/07/02 00:02:08;;;;;;;15.00;4.20;;;18.30;93.80;;;;;;5038108;28;20512;-76
2023/07/02 00:04:34;;;;;;;12.00;4.53;;;18.30;93.90;;;;;;5021897;28;20029;-77
2023/07/02 00:07:00;;;;;;;14.45;4.20;;;18.30;94.10;;;;;;5038445;28;20032;-77
2023/07/02 00:09:25;;;;;;;11.52;4.75;;;18.20;94.20;;;;;;5021806;28;20123;-76
2023/07/02 00:11:51;;;;;;;19.00;5.85;;;18.20;94.30;;;;;;5038328;28;20109;-76
2023/07/02 00:14:17;;;;;;;11.88;5.28;;;18.30;94.40;;;;;;5056325;28;20428;-77
2023/07/02 00:16:45;;;;;;;20.40;6.43;;;18.20;94.30;;;;;;5019667;28;20040;-76
2023/07/02 00:19:12;;;;;;;20.80;6.22;;;18.20;94.50;;;;;;5054546;28;20087;-76
2023/07/02 00:21:38;;;;;;;14.40;6.22;;;18.20;94.50;;;;;;5055648;28;20025;-78
2023/07/02 00:24:04;;;;;;;12.07;5.22;;;18.20;94.50;;;;;;5055082;28;20025;-76
2023/07/02 00:26:30;;;;;;;12.65;6.05;;;18.20;94.50;;;;;;5038054;28;20028;-76
2023/07/02 00:28:56;;;;;;;17.80;6.80;;;18.20;94.60;;;;;;5055162;28;20033;-77
2023/07/02 00:31:22;;;;;;;17.85;5.65;;;18.10;94.60;;;;;;5038048;28;20040;-76
2023/07/02 00:33:49;;;;;;;20.67;7.18;;;18.20;94.90;;;;;;5054555;28;20025;-76
2023/07/02 00:36:14;;;;;;;15.52;6.65;;;18.10;94.70;;;;;;5038303;28;20114;-75
2023/07/02 00:38:48;;;;;;;15.25;7.18;;;18.10;94.60;;;;;;5037337;28;20497;-76
2023/07/02 00:41:14;;;;;;;18.85;7.47;;;18.10;94.70;;;;;;5054493;28;20028;-76
2023/07/02 00:43:43;;;;;;;21.52;7.90;;;18.10;94.80;;;;;;5055704;28;20040;-74
2023/07/02 00:46:17;;;;;;;18.50;7.07;;;18.10;95.10;;;;;;5056283;28;20025;-76
2023/07/02 00:48:44;;;;;;;14.23;6.25;;;18.10;95.20;;;;;;5038696;28;20033;-76
2023/07/02 00:51:13;;;;;;;15.88;6.72;;;18.00;94.00;;;;;;5054145;28;20021;-76
2023/07/02 00:53:38;;;;;;;14.30;6.55;;;17.90;94.00;;;;;;5055492;28;20028;-76
2023/07/02 00:56:04;;;;;;;14.45;5.40;;;17.80;93.80;;;;;;5037678;28;20397;-76
2023/07/02 00:58:30;;;;;;;11.48;4.95;;;17.70;93.80;;;;;;5037504;28;20021;-75
2023/07/02 01:00:56;;;;;;;14.93;5.18;;;17.70;93.80;;;;;;5054040;28;20021;-77
2023/07/02 01:03:22;;;;;;;11.18;5.15;;;17.60;93.70;;;;;;5054357;28;20095;-75
2023/07/02 01:05:48;;;;;;;14.57;5.70;;;17.60;93.70;;;;;;5053895;28;20056;-77
2023/07/02 01:08:14;;;;;;;13.55;6.28;;;17.50;93.70;;;;;;5020833;28;20028;-77
2023/07/02 01:10:39;;;;;;;13.38;5.70;;;17.40;93.70;;;;;;5055036;28;20032;-77
2023/07/02 01:13:12;;;;;;;14.65;5.20;;;17.40;93.80;;;;;;5053877;28;20033;-77
2023/07/02 01:15:38;;;;;;;12.00;5.35;;;17.30;93.90;;;;;;5055031;28;20025;-75
2023/07/02 01:18:05;;;;;;;15.27;5.80;;;17.30;94.00;;;;;;5020820;28;20599;-78
2023/07/02 01:20:31;;;;;;;11.88;5.10;;;17.20;94.20;;;;;;5055265;28;20114;-75
2023/07/02 01:23:02;;;;;;;18.13;7.35;;;17.20;94.30;;;;;;5037052;28;20102;-76
2023/07/02 01:25:28;;;;;;;15.52;6.38;;;17.20;94.40;;;;;;5053611;28;20508;-78
2023/07/02 01:27:55;;;;;;;14.95;5.97;;;17.10;94.00;;;;;;5036826;28;20147;-75
2023/07/02 01:30:21;;;;;;;19.98;6.80;;;17.00;93.90;;;;;;5037123;28;20552;-75
2023/07/02 01:32:46;;;;;;;19.38;6.32;;;17.00;93.90;;;;;;5036655;28;20120;-76
2023/07/02 01:35:12;;;;;;;17.75;6.45;;;16.90;93.80;;;;;;5053419;28;20021;-76
2023/07/02 01:37:38;;;;;;;14.05;6.03;;;16.90;93.80;;;;;;5036708;28;20493;-76
2023/07/02 01:40:08;;;;;;;18.00;8.15;;;16.80;93.60;;;;;;5054470;28;20021;-76
2023/07/02 01:42:34;;;;;;;17.88;7.60;;;16.70;93.30;;;;;;5037263;28;20025;-80
2023/07/02 01:44:59;;;;;;;17.83;7.70;;;16.70;93.20;;;;;;5037125;28;20107;-79
2023/07/02 01:47:25;;;;;;;15.52;6.47;;;16.70;93.30;;;;;;5053193;28;20473;-79
2023/07/02 01:49:51;;;;;;;16.73;6.80;;;16.60;93.30;;;;;;5053331;28;20049;-79
2023/07/02 01:52:17;;;;;;;18.13;6.45;;;16.60;93.40;;;;;;5036776;28;20449;-79
2023/07/02 01:54:44;;;;;;;17.08;6.22;;;16.50;93.50;;;;;;5054231;28;20017;-79
2023/07/02 01:57:09;;;;;;;14.27;6.28;;;16.50;93.40;;;;;;5054141;28;20092;-78
2023/07/02 01:59:35;;;;;;;17.55;7.15;;;16.50;93.50;;;;;;5052989;28;20057;-75
2023/07/02 02:02:01;;;;;;;15.60;6.45;;;16.40;93.60;;;;;;5037187;28;20548;-76
2023/07/02 02:04:27;;;;;;;17.45;6.72;;;16.40;93.60;;;;;;5054107;28;20040;-76
2023/07/02 02:06:53;;;;;;;16.48;6.93;;;16.30;93.80;;;;;;5054048;28;20036;-76
2023/07/02 02:09:18;;;;;;;16.85;6.45;;;16.30;93.80;;;;;;5052591;28;20029;-76
2023/07/02 02:11:48;;;;;;;16.75;7.15;;;16.20;94.00;;;;;;5052572;28;20013;-76
2023/07/02 02:14:13;;;;;;;14.15;6.35;;;16.10;94.20;;;;;;5052688;28;20020;-76
2023/07/02 02:16:39;;;;;;;16.88;6.57;;;16.10;94.30;;;;;;5036238;28;20424;-76
2023/07/02 02:19:05;;;;;;;19.10;6.90;;;16.00;94.40;;;;;;5052767;28;20025;-76
2023/07/02 02:21:31;;;;;;;18.05;6.75;;;16.00;94.60;;;;;;5052517;28;20086;-76
2023/07/02 02:23:57;;;;;;;18.15;6.82;;;15.90;94.60;;;;;;5053724;28;20025;-76
2023/07/02 02:26:25;;;;;;;17.10;6.38;;;15.90;94.80;;;;;;5036051;28;20068;-76
2023/07/02 02:28:51;;;;;;;18.10;6.90;;;15.90;95.00;;;;;;5052474;28;20029;-76
2023/07/02 02:31:17;;;;;;;16.15;6.70;;;15.80;94.90;;;;;;5035664;28;20044;-76
2023/07/02 02:33:42;;;;;;;18.10;6.95;;;15.80;95.10;;;;;;5019411;28;20055;-76
2023/07/02 02:36:08;;;;;;;14.82;5.68;;;15.80;95.20;;;;;;5019529;28;20056;-76
2023/07/02 02:38:34;;;;;;;16.20;6.43;;;15.70;95.30;;;;;;5035739;28;20049;-76
2023/07/02 02:41:00;;;;;;;16.33;6.32;;;15.70;95.40;;;;;;5019263;28;20112;-76
2023/07/02 02:43:26;;;;;;;21.13;7.20;;;15.70;95.40;;;;;;5052527;28;20055;-79
2023/07/02 02:45:51;;;;;;;16.70;6.55;;;15.70;95.60;;;;;;5052336;28;20033;-79
2023/07/02 02:48:17;;;;;;;19.38;7.40;;;15.70;95.60;;;;;;5052100;28;20032;-80
2023/07/02 02:50:43;;;;;;;19.90;6.82;;;15.70;95.70;;;;;;5051953;28;20052;-79
2023/07/02 02:53:09;;;;;;;22.08;6.63;;;15.60;95.80;;;;;;5035672;28;20381;-76
2023/07/02 02:55:38;;;;;;;17.88;7.32;;;15.60;95.90;;;;;;5035650;28;20028;-76
2023/07/02 02:58:04;;;;;;;20.73;7.40;;;15.60;96.10;;;;;;5035782;28;20377;-76
2023/07/02 03:00:29;;;;;;;17.17;7.35;;;15.60;96.20;;;;;;5051874;28;20028;-76
2023/07/02 03:02:55;;;;;;;16.48;6.78;;;15.50;96.30;;;;;;5035139;28;20033;-76
2023/07/02 03:05:22;;;;;;;18.52;7.35;;;15.50;96.40;;;;;;5052016;28;20025;-76
2023/07/02 03:07:48;;;;;;;19.80;7.20;;;15.50;96.40;;;;;;5053144;28;20024;-76
2023/07/02 03:10:13;;;;;;;15.75;7.10;;;15.50;96.40;;;;;;5051706;28;20029;-76
2023/07/02 03:12:39;;;;;;;19.25;7.15;;;15.50;96.80;;;;;;5053227;28;20037;-76
2023/07/02 03:15:05;;;;;;;16.30;6.35;;;15.50;96.60;;;;;;5035340;28;20025;-76
2023/07/02 03:17:31;;;;;;;16.02;7.07;;;15.50;96.70;;;;;;5053072;28;20025;-76
2023/07/02 03:19:57;;;;;;;17.15;7.28;;;15.50;96.70;;;;;;5051843;28;20569;-77
2023/07/02 03:22:22;;;;;;;18.67;7.38;;;15.40;96.70;;;;;;5051702;28;20111;-76
2023/07/02 03:24:48;;;;;;;18.92;6.90;;;15.50;96.90;;;;;;5035216;28;20037;-76
2023/07/02 03:27:13;;;;;;;18.88;7.03;;;15.40;96.80;;;;;;5052338;28;20520;-76
2023/07/02 03:29:39;;;;;;;19.98;7.35;;;15.40;96.90;;;;;;5052963;28;20392;-76
2023/07/02 03:32:05;;;;;;;13.85;6.03;;;15.40;96.90;;;;;;5035281;28;20126;-76
2023/07/02 03:34:31;;;;;;;15.27;6.20;;;15.40;96.90;;;;;;5051599;28;20021;-76
2023/07/02 03:36:56;;;;;;;16.00;7.20;;;15.40;97.00;;;;;;5035074;28;20036;-77
2023/07/02 03:39:22;;;;;;;15.93;6.82;;;15.40;97.00;;;;;;5052830;28;20033;-76
2023/07/02 03:41:48;;;;;;;17.85;6.47;;;15.40;97.10;;;;;;5051717;28;20037;-76
2023/07/02 03:44:13;;;;;;;16.85;6.78;;;15.40;97.10;;;;;;5051691;28;20080;-79
2023/07/02 03:46:39;;;;;;;14.38;6.20;;;15.50;97.10;;;;;;5034986;28;20036;-80
2023/07/02 03:49:05;;;;;;;22.17;7.18;;;15.50;97.00;;;;;;5052607;28;20478;-79
2023/07/02 03:51:31;;;;;;;17.88;7.35;;;15.50;97.00;;;;;;5051339;28;20040;-79
2023/07/02 03:53:58;;;;;;;14.57;6.63;;;15.50;97.30;;;;;;5051533;28;20049;-79
2023/07/02 03:56:24;;;;;;;15.57;6.45;;;15.50;97.30;;;;;;5052733;28;20029;-80
2023/07/02 03:58:49;;;;;;;16.95;6.55;;;15.50;97.00;;;;;;5051870;28;20603;-79
2023/07/02 04:01:15;;;;;;;17.83;6.15;;;15.50;97.10;;;;;;5018520;28;20542;-79
2023/07/02 04:03:47;;;;;;;20.50;7.07;;;15.50;97.00;;;;;;5051531;28;20033;-79
2023/07/02 04:06:13;;;;;;;15.95;6.78;;;15.50;97.00;;;;;;5050159;28;20033;-79
2023/07/02 04:08:38;;;;;;;15.68;6.45;;;15.50;97.00;;;;;;5051203;28;20507;-79
2023/07/02 04:11:04;;;;;;;17.27;6.07;;;15.50;96.90;;;;;;5047381;28;20029;-79
2023/07/02 04:13:30;;;;;;;16.13;5.90;;;15.50;96.90;;;;;;5043110;28;20031;-79
2023/07/02 04:15:55;;;;;;;15.93;6.68;;;15.50;96.80;;;;;;5054289;28;20025;-79
2023/07/02 04:18:21;;;;;;;16.70;6.50;;;15.50;96.80;;;;;;5044715;28;20091;-79
2023/07/02 04:20:46;;;;;;;13.40;6.55;;;15.40;96.70;;;;;;5033190;28;20025;-79
2023/07/02 04:23:12;;;;;;;18.45;7.32;;;15.50;96.70;;;;;;5021746;28;20044;-79
2023/07/02 04:25:38;;;;;;;15.60;6.60;;;15.40;96.60;;;;;;5053655;28;20559;-80
2023/07/02 04:28:03;;;;;;;13.77;6.15;;;15.40;96.60;;;;;;5034620;28;20504;-79
2023/07/02 04:30:29;;;;;;;25.55;8.07;;;15.40;96.50;;;;;;5034670;28;20087;-79
2023/07/02 04:32:54;;;;;;;17.58;6.05;;;15.40;96.40;;;;;;5034643;28;20030;-79
2023/07/02 04:35:20;;;;;;;18.58;7.07;;;15.40;96.50;;;;;;5034550;28;20022;-79
2023/07/02 04:37:46;;;;;;;18.85;6.65;;;15.50;96.50;;;;;;5034627;28;20458;-79
2023/07/02 04:40:12;;;;;;;17.77;7.22;;;15.50;96.30;;;;;;5051057;28;20159;-79
2023/07/02 04:42:38;;;;;;;13.38;6.57;;;15.50;96.30;;;;;;5051173;28;20364;-80
2023/07/02 04:45:08;;;;;;;22.45;6.80;;;15.50;96.10;;;;;;5051090;28;20545;-79
2023/07/02 04:47:34;;;;;;;18.70;6.85;;;15.50;96.00;;;;;;5035650;28;20079;-79
2023/07/02 04:50:00;;;;;;;21.40;7.47;;;15.50;96.00;;;;;;5050899;28;20049;-79
2023/07/02 04:52:26;;;;;;;19.33;7.07;;;15.50;95.80;;;;;;5035869;28;20539;-79
2023/07/02 04:54:52;;;;;;;26.50;8.10;;;15.50;95.70;;;;;;5034342;28;20030;-79
2023/07/02 04:57:18;;;;;;;20.40;6.45;;;15.50;95.60;;;;;;5050930;28;20374;-79
2023/07/02 04:59:44;;;;;;;20.00;6.43;;;15.50;95.50;;;;;;5035670;28;20409;-79
2023/07/02 05:02:10;;;;;;;20.08;7.18;;;15.50;95.40;;;;;;5034203;28;20453;-81
2023/07/02 05:04:39;;;;;;;16.25;7.20;;;15.50;95.30;;;;;;5034269;28;20104;-81
2023/07/02 05:07:04;;;;;;;21.40;8.18;;;15.50;95.30;;;;;;5034489;28;20033;-80
2023/07/02 05:09:30;;;;;;;19.52;7.10;;;15.60;95.20;;;;;;5034008;28;20551;-79
2023/07/02 05:11:56;;;;;;;15.07;7.13;;;15.60;95.10;;;;;;5034143;28;20385;-80
2023/07/02 05:14:22;;;;;;;20.48;8.02;;;15.60;94.90;;;;;;5035158;28;20025;-79
2023/07/02 05:16:48;;;;;;;18.65;7.72;;;15.70;94.70;;;;;;5035069;28;20390;-79
2023/07/02 05:19:14;;;;;;;21.40;7.57;;;15.70;94.70;;;;;;5035011;28;20036;-79
2023/07/02 05:21:40;;;;;;;20.63;8.00;;;15.70;94.30;;;;;;5050200;28;20063;-82
2023/07/02 05:24:06;;;;;;;22.50;7.68;;;15.80;94.20;;;;;;5033635;28;20041;-79
2023/07/02 05:26:32;;;;;;;19.92;7.72;;;15.80;94.20;;;;;;5033707;28;20072;-81
2023/07/02 05:28:58;;;;;;;27.08;8.25;;;15.90;94.10;;;;;;5051373;28;20035;-79
2023/07/02 05:31:23;;;;;;;22.38;8.05;;;15.90;93.80;;;;;;5054454;28;20029;-80
2023/07/02 05:33:49;;;;;;;26.15;7.63;;;16.00;93.70;;;;;;5053679;28;20031;-81
2023/07/02 05:36:15;;;;;;;18.65;7.68;;;16.00;93.50;;;;;;5053359;28;20028;-80
2023/07/02 05:38:41;;;;;;;27.92;8.82;;;16.10;93.10;;;;;;5054806;28;20096;-81
2023/07/02 05:41:06;;;;;;;21.35;7.65;;;16.20;93.00;;;;;;5048619;28;20408;-81
2023/07/02 05:43:32;;;;;;;30.42;8.05;;;16.20;92.50;;;;;;5054374;28;20025;-81
2023/07/02 05:46:02;;;;;;;20.88;7.70;;;16.30;92.40;;;;;;5053221;28;20362;-81
2023/07/02 05:48:28;;;;;;;23.23;7.60;;;16.30;92.20;;;;;;5053213;28;20120;-81
2023/07/02 05:50:54;;;;;;;20.02;7.07;;;16.40;92.20;;;;;;5054407;28;20073;-82
2023/07/02 05:53:20;;;;;;;18.70;7.65;;;16.50;91.90;;;;;;5053067;28;20013;-80
2023/07/02 05:55:46;;;;;;;22.13;7.90;;;16.50;91.60;;;;;;5020397;28;20062;-80
2023/07/02 05:58:12;;;;;;;26.23;8.23;;;16.60;91.40;;;;;;5054272;28;20021;-81
2023/07/02 06:00:41;;;;;;;19.63;7.72;;;16.70;91.00;;;;;;5036416;28;20039;-80
2023/07/02 06:03:07;;;;;;;19.95;7.53;;;16.70;91.00;;;;;;5054296;28;20029;-81
2023/07/02 06:05:32;;;;;;;21.45;7.57;;;16.80;90.90;;;;;;5054242;28;20544;-76
2023/07/02 06:07:58;;;;;;;21.25;7.80;;;16.80;90.50;;;;;;5052510;28;20174;-76
2023/07/02 06:10:24;;;;;;;27.10;8.57;;;16.80;90.20;;;;;;5019566;28;20029;-77
2023/07/02 06:12:49;;;;;;;23.67;7.18;;;16.90;89.30;;;;;;5036134;28;20508;-77
2023/07/02 06:15:15;;;;;;;21.05;7.38;;;16.90;89.30;;;;;;5053944;28;20036;-77
2023/07/02 06:17:40;;;;;;;17.55;6.40;;;16.90;89.00;;;;;;5036046;28;20025;-78
2023/07/02 06:20:07;;;;;;;22.95;7.82;;;16.90;88.80;;;;;;5052514;28;20477;-77
2023/07/02 06:22:33;;;;;;;17.48;6.63;;;17.00;88.20;;;;;;5053984;28;20029;-76
2023/07/02 06:24:58;;;;;;;20.50;6.38;;;17.00;88.90;;;;;;5019444;28;20083;-78
2023/07/02 06:27:24;;;;;;;22.73;7.20;;;17.10;88.20;;;;;;5035808;28;20544;-76
2023/07/02 06:29:51;;;;;;;21.63;8.10;;;17.10;88.10;;;;;;5053518;28;20388;-76
2023/07/02 06:32:17;;;;;;;17.15;7.03;;;17.20;88.00;;;;;;5036025;28;20025;-77
2023/07/02 06:34:42;;;;;;;20.40;7.07;;;17.30;87.30;;;;;;5035791;28;20029;-77
2023/07/02 06:37:08;;;;;;;24.05;6.97;;;17.30;86.40;;;;;;5019027;28;20058;-77
2023/07/02 06:39:33;;;;;;;18.80;6.43;;;17.40;85.90;;;;;;5052507;28;20112;-75
2023/07/02 06:41:59;;;;;;;18.48;6.80;;;17.40;85.70;;;;;;5052250;28;20078;-76
2023/07/02 06:44:25;;;;;;;15.43;5.40;;;17.50;85.10;;;;;;5019081;28;20493;-76
2023/07/02 06:46:50;;;;;;;18.00;7.05;;;17.50;85.10;;;;;;5035523;28;20033;-76
2023/07/02 06:49:16;;;;;;;20.85;6.38;;;17.60;85.40;;;;;;5035320;28;20044;-77
2023/07/02 06:51:41;;;;;;;20.42;6.68;;;17.60;85.00;;;;;;5035327;28;20060;-77
2023/07/02 06:54:07;;;;;;;18.83;7.18;;;17.70;84.20;;;;;;5035472;28;20025;-77
2023/07/02 06:56:34;;;;;;;19.60;6.35;;;17.80;84.60;;;;;;5035554;28;20074;-77
2023/07/02 06:59:00;;;;;;;15.25;6.28;;;17.80;84.50;;;;;;5035620;28;20029;-78
2023/07/02 07:01:25;;;;;;;18.50;6.28;;;17.90;83.50;;;;;;5051968;28;20025;-78
2023/07/02 07:03:51;;;;;;;16.92;6.50;;;17.90;82.30;;;;;;5035443;28;20362;-78
2023/07/02 07:06:17;;;;;;;14.38;5.90;;;18.00;81.90;;;;;;5035345;28;20029;-79
2023/07/02 07:08:42;;;;;;;13.60;6.05;;;18.00;81.70;;;;;;5035167;28;20433;-75
2023/07/02 07:11:08;;;;;;;14.45;5.68;;;18.10;81.10;;;;;;5051775;28;20060;-77
2023/07/02 07:13:34;;;;;;;14.13;5.47;;;18.10;80.40;;;;;;5035250;28;20102;-78
2023/07/02 07:15:59;;;;;;;16.10;6.20;;;18.20;81.00;;;;;;5053768;28;20543;-78
2023/07/02 07:18:25;;;;;;;17.80;6.28;;;18.20;77.80;;;;;;5053019;28;20040;-82
2023/07/02 07:20:52;;;;;;;15.20;6.28;;;18.10;78.90;;;;;;5035351;28;20556;-80
2023/07/02 07:23:18;;;;;;;14.68;5.35;;;18.20;78.10;;;;;;5051895;28;20053;-81
2023/07/02 07:25:44;;;;;;;14.88;5.82;;;18.20;77.70;;;;;;5053150;28;20044;-77
2023/07/02 07:28:15;;;;;;;17.10;6.28;;;18.10;76.80;;;;;;5018924;28;20058;-79
2023/07/02 07:30:41;;;;;;;20.77;5.93;;;18.10;76.60;;;;;;5052871;28;20028;-80
2023/07/02 07:33:07;;;;;;;18.42;5.70;;;18.10;76.40;;;;;;5053090;28;20066;-79
2023/07/02 07:35:33;;;;;;;18.42;5.78;;;18.10;76.50;;;;;;5053080;28;20491;-78
2023/07/02 07:37:58;;;;;;;12.80;5.43;;;18.10;77.80;;;;;;5051980;28;20029;-80
2023/07/02 07:40:24;;;;;;;18.27;5.88;;;18.10;77.70;;;;;;5035086;28;20029;-79
2023/07/02 07:42:49;;;;;;;16.77;5.47;;;18.20;76.70;;;;;;5052799;28;20122;-81
2023/07/02 07:45:15;;;;;;;17.00;5.25;;;18.10;77.00;;;;;;5051591;28;20032;-82
2023/07/02 07:47:41;;;;;;;13.77;5.47;;;18.10;77.90;;;;;;5052978;28;20450;-80
2023/07/02 07:50:10;;;;;;;15.35;5.50;;;18.20;78.60;;;;;;5054953;28;20122;-80
2023/07/02 07:52:40;;;;;;;17.27;5.85;;;18.20;78.10;;;;;;5055700;28;20021;-78
2023/07/02 07:55:06;;;;;;;15.15;5.95;;;18.30;76.90;;;;;;5056572;28;20021;-79
2023/07/02 07:57:33;;;;;;;17.50;5.75;;;18.20;76.50;;;;;;5042673;28;20033;-80
2023/07/02 07:59:59;;;;;;;17.98;5.78;;;18.20;76.50;;;;;;5036265;28;20033;-81
2023/07/02 08:02:24;;;;;;;17.70;5.82;;;18.20;77.10;;;;;;5018323;28;20067;-80
2023/07/02 08:04:50;;;;;;;16.33;4.95;;;18.30;76.90;;;;;;5037990;28;20038;-79
2023/07/02 08:07:16;;;;;;;15.45;5.80;;;18.30;74.60;;;;;;5018465;28;20037;-79
2023/07/02 08:09:41;;;;;;;14.05;5.47;;;18.30;75.30;;;;;;5036285;28;20040;-76
2023/07/02 08:12:07;;;;;;;15.95;6.32;;;18.30;74.20;;;;;;5035525;28;20064;-77
2023/07/02 08:14:35;;;;;;;20.30;5.78;;;18.20;73.90;;;;;;5035118;28;20116;-79
2023/07/02 08:17:01;;;;;;;16.63;5.15;;;18.30;74.60;;;;;;5035193;28;20029;-77
2023/07/02 08:19:26;;;;;;;14.38;4.80;;;18.30;75.20;;;;;;5034997;28;20381;-77
2023/07/02 08:21:52;;;;;;;16.10;5.82;;;18.50;74.40;;;;;;5034973;28;20025;-77
2023/07/02 08:24:18;;;;;;;13.45;4.97;;;18.40;73.00;;;;;;5036212;28;20041;-75
2023/07/02 08:26:44;;;;;;;18.08;4.95;;;18.50;71.70;;;;;;5036088;28;20097;-78
2023/07/02 08:29:10;;;;;;;15.45;5.45;;;18.50;71.20;;;;;;5034654;28;20103;-78
2023/07/02 08:31:36;;;;;;;14.05;4.88;;;18.60;70.60;;;;;;5034541;28;20393;-79
2023/07/02 08:34:02;;;;;;;17.23;5.55;;;18.60;70.20;;;;;;5034580;28;20026;-78
2023/07/02 08:36:28;;;;;;;14.13;5.60;;;18.70;70.10;;;;;;5034884;28;20053;-76
2023/07/02 08:38:53;;;;;;;11.27;4.78;;;18.70;69.60;;;;;;5051245;28;20095;-75
2023/07/02 08:41:22;;;;;;;16.38;5.80;;;18.70;69.40;;;;;;5034653;28;20555;-76
2023/07/02 08:43:48;;;;;;;12.60;5.13;;;18.70;69.50;;;;;;5034454;28;20536;-77
2023/07/02 08:46:15;;;;;;;14.82;4.88;;;18.80;69.30;;;;;;5051040;28;20026;-76
2023/07/02 08:48:41;;;;;;;14.48;5.50;;;18.80;69.60;;;;;;5034331;28;20026;-77
2023/07/02 08:51:07;;;;;;;13.63;5.10;;;18.80;68.80;;;;;;5017526;28;20107;-76
2023/07/02 08:53:33;;;;;;;15.00;4.75;;;18.80;69.20;;;;;;5034194;28;20029;-78
2023/07/02 08:56:00;;;;;;;11.88;3.85;;;18.80;68.40;;;;;;5034098;28;20116;-77
2023/07/02 08:58:26;;;;;;;13.43;4.10;;;18.80;68.10;;;;;;5034130;28;20382;-76
2023/07/02 09:01:09;;;;;;;15.13;5.00;;;18.80;66.90;;;;;;5033823;28;20026;-76
2023/07/02 09:03:37;;;;;;;13.27;4.30;;;18.80;66.20;;;;;;5050676;28;20029;-75
2023/07/02 09:06:04;;;;;;;12.55;4.82;;;18.90;66.80;;;;;;5033974;28;20041;-74
2023/07/02 09:08:29;;;;;;;10.52;4.35;;;18.90;65.70;;;;;;5033861;28;20044;-76
2023/07/02 09:11:05;;;;;;;12.98;4.65;;;18.90;66.00;;;;;;5033899;28;20029;-81
2023/07/02 09:13:31;;;;;;;13.13;5.40;;;18.90;66.50;;;;;;5033943;28;20033;-81
2023/07/02 09:15:56;;;;;;;13.95;4.43;;;19.00;66.60;;;;;;5050452;28;20033;-79
2023/07/02 09:18:26;;;;;;;12.48;4.53;;;19.00;63.70;;;;;;5034079;28;20048;-78
2023/07/02 09:20:54;;;;;;;11.70;4.50;;;19.00;63.50;;;;;;5034838;28;20045;-80
2023/07/02 09:23:20;;;;;;;13.98;4.10;;;19.00;63.90;;;;;;5050099;28;20087;-80
2023/07/02 09:25:46;;;;;;;13.50;4.05;;;19.30;63.30;;;;;;5050401;28;20038;-78
2023/07/02 09:28:22;;;;;;;11.40;4.15;;;19.30;61.40;;;;;;5034834;28;20029;-77
2023/07/02 09:30:55;;;;;;;12.60;4.68;;;19.40;61.30;;;;;;5034725;28;20194;-78
2023/07/02 09:33:23;;;;;;;12.98;4.15;;;19.30;62.10;;;;;;5033469;28;20021;-80
2023/07/02 09:35:50;;;;;;;17.88;4.10;;;19.40;61.60;;;;;;5034708;28;20029;-78
2023/07/02 09:38:15;;;;;;;9.00;4.13;;;19.40;61.30;;;;;;5033420;28;20032;-79
2023/07/02 09:40:50;;;;;;;14.05;3.95;;;19.50;61.10;;;;;;5034944;28;20037;-78
2023/07/02 09:43:19;;;;;;;11.45;4.38;;;19.50;60.20;;;;;;5033232;28;20060;-77
2023/07/02 09:45:46;;;;;;;10.65;3.60;;;19.50;59.40;;;;;;5050128;28;20068;-77
2023/07/02 09:48:17;;;;;;;7.97;3.13;;;19.50;58.60;;;;;;5041140;28;20036;-79
2023/07/02 09:50:47;;;;;;;10.57;3.45;;;19.40;58.20;;;;;;5049135;28;20045;-79
2023/07/02 09:53:13;;;;;;;10.05;3.67;;;19.40;57.70;;;;;;5033112;28;20029;-76
2023/07/02 09:55:41;;;;;;;9.60;3.97;;;19.40;57.20;;;;;;5036631;28;20021;-76
2023/07/02 09:58:07;;;;;;;11.65;3.97;;;19.50;58.10;;;;;;5041847;28;20021;-77
2023/07/02 10:00:33;;;;;;;10.15;4.03;;;19.60;58.30;;;;;;5037949;28;20018;-76
2023/07/02 10:03:00;;;;;;;9.55;3.55;;;19.60;58.20;;;;;;5051366;28;20017;-77
2023/07/02 10:05:33;;;;;;;10.50;3.65;;;19.70;58.40;;;;;;5041637;28;20026;-75
2023/07/02 10:08:22;;;;;;;;;;;19.60;58.10;;;;;;5033503;28;20374;-75
2023/07/02 10:10:48;;;;;;;13.27;3.33;;;19.60;58.20;;;;;;5031914;28;19913;-77
2023/07/02 10:13:14;;;;;;;9.15;2.97;;;19.70;57.10;;;;;;5049301;28;20124;-76
2023/07/02 10:15:40;;;;;;;12.32;3.60;;;19.60;56.20;;;;;;5046911;28;20404;-78
2023/07/02 10:18:06;;;;;;;8.93;3.50;;;19.60;57.40;;;;;;5033946;28;20030;-77
2023/07/02 10:20:36;;;;;;;10.82;3.40;;;19.70;56.90;;;;;;5033741;28;20029;-79
2023/07/02 10:23:02;;;;;;;9.77;2.95;;;19.80;56.60;;;;;;5016497;28;20030;-78
2023/07/02 10:25:34;;;;;;;9.27;3.20;;;19.90;56.10;;;;;;5033771;28;20460;-78
2023/07/02 10:28:00;;;;;;;10.52;3.00;;;20.00;56.30;;;;;;5033723;28;20036;-77
2023/07/02 10:30:37;;;;;;;10.65;3.45;;;20.10;57.10;;;;;;5032479;28;20029;-78
2023/07/02 10:33:14;;;;;;;9.63;3.50;;;20.30;56.90;;;;;;5041711;28;20033;-79
2023/07/02 10:35:42;;;;;;;8.85;2.78;;;20.50;56.20;;;;;;5050862;28;20496;-77
2023/07/02 10:38:14;;;;;;;13.40;3.30;;;20.70;54.30;;;;;;5035937;28;20021;-78
2023/07/02 10:40:39;;;;;;;9.18;3.60;;;20.80;54.00;;;;;;5036355;28;20413;-78
2023/07/02 10:43:07;;;;;;;9.68;3.65;;;20.90;53.60;;;;;;5015809;28;20028;-80
2023/07/02 10:45:34;;;;;;;10.52;3.20;;;21.00;53.50;;;;;;5032146;28;20440;-79
2023/07/02 10:48:03;;;;;;;8.10;3.20;;;21.00;53.20;;;;;;5033402;28;20108;-81
2023/07/02 10:50:30;;;;;;;7.88;3.22;;;21.10;53.20;;;;;;5033291;28;20133;-79
2023/07/02 10:52:55;;;;;;;7.38;2.85;;;21.10;53.20;;;;;;5033370;28;20369;-82
2023/07/02 10:55:23;;;;;;;9.60;3.38;;;21.20;53.20;;;;;;5033330;28;20040;-77
2023/07/02 10:57:50;;;;;;;13.80;3.33;;;21.20;53.10;;;;;;5020794;28;20095;-74
2023/07/02 11:00:17;;;;;;;7.93;3.28;;;21.20;53.10;;;;;;5053092;28;20032;-77
2023/07/02 11:02:43;;;;;;;9.63;3.53;;;21.20;52.90;;;;;;5034658;28;20128;-77
2023/07/02 11:05:12;;;;;;;8.85;3.10;;;21.30;52.90;;;;;;5053213;28;20037;-78
2023/07/02 11:07:42;;;;;;;8.50;3.10;;;21.30;53.60;;;;;;5052105;28;20106;-78
2023/07/02 11:10:09;;;;;;;8.75;3.60;;;21.40;53.20;;;;;;5051816;28;20392;-75
2023/07/02 11:12:36;;;;;;;7.88;2.67;;;21.60;52.20;;;;;;5050414;28;20025;-80
2023/07/02 11:15:09;;;;;;;7.03;2.92;;;21.80;51.90;;;;;;5053128;28;20024;-81
2023/07/02 11:17:34;;;;;;;9.53;2.97;;;21.90;52.00;;;;;;5052048;28;20465;-81
2023/07/02 11:20:00;;;;;;;7.82;2.78;;;22.10;52.00;;;;;;5051938;28;20037;-81
2023/07/02 11:22:33;;;;;;;8.70;2.92;;;22.30;51.50;;;;;;5054396;28;20036;-84
2023/07/02 11:25:16;;;;;;;10.13;2.78;;;22.80;51.20;;;;;;5056016;28;20035;-84
2023/07/02 11:27:42;;;;;;;6.60;2.73;;;23.10;49.90;;;;;;5057673;28;20021;-83
2023/07/02 11:30:08;;;;;;;9.13;2.30;;;23.70;48.90;;;;;;5055982;28;20028;-84
2023/07/02 11:32:51;;;;;;;7.25;2.72;;;23.90;47.60;;;;;;5055843;28;20029;-83
2023/07/02 11:35:18;;;;;;;6.22;2.55;;;23.80;47.00;;;;;;5039645;28;20021;-77
2023/07/02 11:37:44;;;;;;;8.82;2.58;;;24.20;48.10;;;;;;5055772;28;20488;-77
2023/07/02 11:40:11;;;;;;;7.72;2.28;;;24.70;46.50;;;;;;5047688;28;20092;-78
2023/07/02 11:42:36;;;;;;;8.00;2.58;;;24.80;46.70;;;;;;5056729;28;20108;-77
2023/07/02 11:45:02;;;;;;;6.80;2.17;;;25.10;45.80;;;;;;5055619;28;20112;-78
2023/07/02 11:47:28;;;;;;;10.75;2.85;;;25.20;45.10;;;;;;5056219;28;20036;-78
2023/07/02 11:49:59;;;;;;;5.65;2.72;;;24.90;44.40;;;;;;5038416;28;20044;-77
2023/07/02 11:52:25;;;;;;;6.45;2.08;;;24.50;44.70;;;;;;5056696;28;20086;-77
2023/07/02 11:54:50;;;;;;;9.05;2.83;;;24.30;45.60;;;;;;5055158;28;20025;-78
2023/07/02 11:57:16;;;;;;;6.53;2.50;;;24.40;45.40;;;;;;5055489;28;20484;-76
2023/07/02 11:59:42;;;;;;;7.13;2.80;;;24.30;44.00;;;;;;5055236;28;20531;-77
2023/07/02 12:02:08;;;;;;;5.75;2.65;;;24.20;44.50;;;;;;5038693;28;20033;-77
2023/07/02 12:04:33;;;;;;;7.18;2.83;;;24.20;44.00;;;;;;5038509;28;20037;-77
2023/07/02 12:07:01;;;;;;;7.30;2.47;;;24.40;44.40;;;;;;5055078;28;20033;-75
2023/07/02 12:09:27;;;;;;;7.85;2.22;;;24.30;44.30;;;;;;5049863;28;20418;-77
2023/07/02 12:11:53;;;;;;;5.80;2.17;;;24.20;45.40;;;;;;5054614;28;20116;-76
2023/07/02 12:14:18;;;;;;;6.95;2.40;;;24.10;45.40;;;;;;5037953;28;20120;-76
2023/07/02 12:16:44;;;;;;;5.38;1.80;;;24.30;45.80;;;;;;5056456;28;20118;-77
2023/07/02 12:19:10;;;;;;;5.80;2.22;;;24.30;45.70;;;;;;5021337;28;20380;-79
2023/07/02 12:21:36;;;;;;;5.93;2.25;;;24.40;45.60;;;;;;5055190;28;20575;-77
2023/07/02 12:24:02;;;;;;;7.07;1.90;;;24.50;46.00;;;;;;5054501;28;20040;-78
2023/07/02 12:26:28;;;;;;;4.20;1.83;;;24.70;46.60;;;;;;5055111;28;20072;-76
2023/07/02 12:28:54;;;;;;;7.43;2.63;;;24.90;45.90;;;;;;5054591;28;20025;-77
2023/07/02 12:31:20;;;;;;;5.32;2.30;;;25.10;45.80;;;;;;5038143;28;20022;-78
2023/07/02 12:33:46;;;;;;;5.80;1.88;;;25.20;45.20;;;;;;5037375;28;20021;-80
2023/07/02 12:36:12;;;;;;;7.90;2.22;;;25.30;45.00;;;;;;5037792;28;20030;-76